Time;durP1;ratioP1;P1;durP2;ratioP2;P2;SDS_P1;SDS_P2;PMS_P1;PMS_P2;Temp;Humidity;BMP_temperature;BMP_pressure;BME280_temperature;BME280_humidity;BME280_pressure;Samples;Min_cycle;Max_cycle;Signal;HPM_P1;HPM_P2
2021/05/10 00:01:49;;;;;;;6.50;3.30;;;;;;;22.68;41.80;99884.13;4170273;28;20032;-52
2021/05/10 00:03:49;;;;;;;3.88;2.70;;;;;;;22.67;41.95;99872.16;4175492;28;20040;-50
2021/05/10 00:05:51;;;;;;;4.05;2.88;;;;;;;22.66;41.83;99876.09;4173852;28;20142;-52
2021/05/10 00:07:51;;;;;;;5.55;3.20;;;;;;;22.63;41.71;99880.34;4175866;28;20116;-52
2021/05/10 00:09:52;;;;;;;6.50;2.97;;;;;;;22.62;41.76;99872.31;4172249;28;20522;-50
2021/05/10 00:11:53;;;;;;;4.75;2.90;;;;;;;22.59;41.85;99878.53;4171384;28;20029;-54
2021/05/10 00:13:55;;;;;;;5.50;2.63;;;;;;;22.59;41.86;99870.19;4169220;28;20029;-52
2021/05/10 00:15:55;;;;;;;8.23;3.08;;;;;;;22.58;41.63;99871.31;4171763;28;20036;-54
2021/05/10 00:18:03;;;;;;;5.50;2.72;;;;;;;22.56;41.64;99873.63;4172484;28;20040;-49
2021/05/10 00:20:04;;;;;;;5.07;2.50;;;;;;;22.56;41.75;99868.03;4172601;28;20062;-53
2021/05/10 00:22:05;;;;;;;5.38;2.60;;;;;;;22.54;41.64;99865.59;4171777;28;20033;-54
2021/05/10 00:24:05;;;;;;;7.45;2.80;;;;;;;22.54;41.65;99864.75;4171677;28;20613;-49
2021/05/10 00:26:06;;;;;;;4.93;2.53;;;;;;;22.51;41.65;99857.88;4170319;28;20548;-51
2021/05/10 00:28:07;;;;;;;5.35;2.42;;;;;;;22.47;41.75;99856.06;4175099;28;20463;-53
2021/05/10 00:30:08;;;;;;;6.13;2.78;;;;;;;22.51;41.69;99868.19;4168405;28;20041;-52
2021/05/10 00:32:09;;;;;;;4.68;2.50;;;;;;;22.49;41.73;99859.34;4173249;28;20028;-52
2021/05/10 00:34:09;;;;;;;5.18;2.10;;;;;;;22.50;41.94;99856.22;4173588;28;20064;-50
2021/05/10 00:36:10;;;;;;;5.15;2.40;;;;;;;22.49;41.83;99850.97;4170885;28;20472;-52
2021/05/10 00:38:10;;;;;;;4.47;2.35;;;;;;;22.43;41.56;99845.56;4172765;28;20037;-53
2021/05/10 00:40:14;;;;;;;3.30;2.10;;;;;;;22.45;41.55;99839.66;4169759;28;20036;-53
2021/05/10 00:42:14;;;;;;;4.18;2.28;;;;;;;22.45;41.88;99832.09;4173521;28;20044;-54
2021/05/10 00:44:14;;;;;;;3.22;2.17;;;;;;;22.44;41.69;99822.09;4173377;28;20484;-54
2021/05/10 00:46:15;;;;;;;6.43;2.53;;;;;;;22.42;41.76;99824.41;4175751;28;20037;-54
2021/05/10 00:48:17;;;;;;;3.75;2.20;;;;;;;22.45;41.58;99829.31;4171726;28;20052;-52
2021/05/10 00:50:20;;;;;;;3.30;2.45;;;;;;;22.40;41.92;99818.34;4171557;28;20077;-54
2021/05/10 00:52:20;;;;;;;3.40;2.20;;;;;;;22.40;41.58;99828.66;4177633;28;20051;-51
2021/05/10 00:54:21;;;;;;;4.07;2.22;;;;;;;22.35;41.72;99820.47;4174865;28;20029;-52
2021/05/10 00:56:21;;;;;;;3.72;2.42;;;;;;;22.40;41.59;99832.28;4158387;28;21301;-56
2021/05/10 00:58:22;;;;;;;3.40;1.90;;;;;;;22.37;41.77;99838.53;4173359;28;20171;-50
2021/05/10 01:03:19;;;;;;;4.93;2.33;;;;;;;22.35;41.64;99814.88;4159685;28;20094;-51
2021/05/10 01:05:20;;;;;;;3.10;1.88;;;;;;;22.36;41.80;99819.31;4176792;28;20080;-53
2021/05/10 01:07:20;;;;;;;2.97;1.80;;;;;;;22.35;41.64;99804.56;4174033;28;20030;-51
2021/05/10 01:09:21;;;;;;;3.22;2.03;;;;;;;22.36;41.79;99802.59;4179779;28;20090;-55
2021/05/10 01:11:21;;;;;;;2.90;2.10;;;;;;;22.22;41.77;99786.03;4173438;28;20025;-55
2021/05/10 01:13:23;;;;;;;2.78;1.77;;;;;;;22.27;41.65;99786.72;4176268;28;20048;-53
2021/05/10 01:15:26;;;;;;;2.70;1.80;;;;;;;22.29;41.82;99780.81;4177565;28;20067;-53
2021/05/10 01:17:26;;;;;;;3.72;2.13;;;;;;;22.30;41.55;99784.41;4176333;28;20032;-53
2021/05/10 01:19:27;;;;;;;2.50;2.25;;;;;;;22.13;41.54;99749.00;4190645;28;20040;-52
2021/05/10 01:21:29;;;;;;;4.20;2.05;;;;;;;22.22;41.73;99758.16;4176820;28;20514;-52
2021/05/10 01:23:30;;;;;;;3.17;1.88;;;;;;;22.27;41.48;99760.78;4178718;28;20052;-53
2021/05/10 01:25:31;;;;;;;2.75;1.90;;;;;;;22.31;41.40;99761.78;4190279;28;20058;-51
2021/05/10 01:27:32;;;;;;;1.83;1.70;;;;;;;22.29;41.44;99760.44;4174875;28;20040;-53
2021/05/10 01:29:33;;;;;;;2.60;1.75;;;;;;;22.32;41.52;99771.78;4180759;28;20028;-50
2021/05/10 01:33:44;;;;;;;2.83;2.00;;;;;;;22.25;41.68;99769.47;4611760;22;20069;-52
2021/05/10 01:35:51;;;;;;;1.83;1.73;;;;;;;22.27;41.57;99777.50;4162498;28;20041;-50
2021/05/10 01:37:51;;;;;;;3.83;1.88;;;;;;;22.19;41.67;99795.88;4173698;28;20517;-55
2021/05/10 01:39:52;;;;;;;2.28;2.00;;;;;;;22.24;41.53;99804.09;4167905;28;20060;-51
2021/05/10 01:41:52;;;;;;;2.42;1.90;;;;;;;22.24;41.65;99792.94;4168648;28;20029;-49
2021/05/10 01:43:53;;;;;;;3.40;1.95;;;;;;;22.23;41.60;99810.00;4169216;28;20474;-54
2021/05/10 01:45:54;;;;;;;3.25;1.80;;;;;;;22.21;41.46;99821.47;4166358;28;20483;-54
2021/05/10 01:48:05;;;;;;;3.35;2.03;;;;;;;22.23;41.48;99835.06;4173504;28;20455;-52
2021/05/10 01:50:28;;;;;;;4.15;2.15;;;;;;;22.21;41.49;99834.56;4171760;28;20110;-50
2021/05/10 01:52:28;;;;;;;1.92;1.83;;;;;;;22.21;41.61;99809.47;4169651;28;20441;-52
2021/05/10 01:54:29;;;;;;;3.05;1.88;;;;;;;22.21;41.60;99781.59;4168346;28;20029;-56
2021/05/10 01:56:29;;;;;;;2.78;1.90;;;;;;;22.20;41.28;99791.13;4176048;28;20394;-57
2021/05/10 01:58:30;;;;;;;2.10;1.70;;;;;;;22.16;41.46;99790.13;4170609;28;20037;-52
2021/05/10 02:00:37;;;;;;;2.55;2.05;;;;;;;22.17;41.44;99783.44;4161540;28;20408;-52
2021/05/10 02:02:38;;;;;;;1.85;1.70;;;;;;;22.11;41.78;99754.88;4171388;28;20052;-55
2021/05/10 02:05:04;;;;;;;3.53;2.20;;;;;;;22.14;41.71;99767.34;4170030;28;20121;-54
2021/05/10 02:07:05;;;;;;;2.25;2.05;;;;;;;22.15;41.75;99757.84;4166750;28;20039;-54
2021/05/10 02:09:05;;;;;;;4.57;1.80;;;;;;;22.11;41.54;99760.47;4172500;28;20491;-54
2021/05/10 02:11:06;;;;;;;3.65;1.90;;;;;;;22.13;41.47;99760.13;4166110;28;20080;-54
2021/05/10 02:13:11;;;;;;;1.70;1.50;;;;;;;22.09;41.72;99755.22;4170344;28;20032;-50
2021/05/10 02:15:12;;;;;;;3.92;2.38;;;;;;;22.11;41.46;99751.28;4170588;28;20033;-53
2021/05/10 02:17:12;;;;;;;2.28;2.08;;;;;;;22.08;41.48;99748.00;4159919;28;20037;-56
2021/05/10 02:19:12;;;;;;;2.28;1.80;;;;;;;22.09;41.42;99740.47;4173426;28;20037;-52
2021/05/10 02:21:13;;;;;;;2.00;1.77;;;;;;;22.08;41.70;99727.69;4168668;28;20025;-56
2021/05/10 02:23:19;;;;;;;2.30;1.83;;;;;;;22.06;41.43;99721.63;4171372;28;20033;-52
2021/05/10 02:25:22;;;;;;;1.95;1.70;;;;;;;22.08;41.49;99722.91;4173138;28;20111;-56
2021/05/10 02:27:23;;;;;;;2.78;2.15;;;;;;;21.95;41.51;99709.97;4171302;28;20067;-52
2021/05/10 02:29:23;;;;;;;3.10;2.08;;;;;;;22.02;41.74;99715.88;4171143;28;20395;-54
2021/05/10 02:31:23;;;;;;;2.55;1.80;;;;;;;22.03;41.66;99713.91;4170899;28;20017;-54
2021/05/10 02:33:34;;;;;;;1.80;1.70;;;;;;;22.02;41.70;99712.28;4167177;28;20060;-51
2021/05/10 02:35:34;;;;;;;1.70;1.30;;;;;;;22.02;41.89;99701.13;4170764;28;20647;-51
2021/05/10 02:37:35;;;;;;;1.73;1.52;;;;;;;22.03;41.50;99698.00;4172968;28;20025;-54
2021/05/10 02:39:35;;;;;;;1.85;1.70;;;;;;;21.92;41.92;99693.91;4173163;28;20871;-53
2021/05/10 02:41:36;;;;;;;1.80;1.70;;;;;;;22.00;41.76;99698.66;4169593;28;20425;-57
2021/05/10 02:43:36;;;;;;;2.60;1.90;;;;;;;22.01;41.88;99700.31;4166985;28;20087;-49
2021/05/10 02:45:36;;;;;;;2.22;2.00;;;;;;;21.97;41.28;99688.16;4170126;28;20037;-57
2021/05/10 02:47:39;;;;;;;1.83;1.52;;;;;;;21.96;41.64;99685.69;4173280;28;20518;-57
2021/05/10 02:49:39;;;;;;;2.05;1.88;;;;;;;21.96;41.80;99680.94;4172833;28;20049;-50
2021/05/10 02:51:40;;;;;;;2.47;2.00;;;;;;;21.96;41.55;99678.13;4171180;28;20100;-52
2021/05/10 02:53:40;;;;;;;4.07;1.80;;;;;;;21.94;41.60;99674.88;4164425;28;20037;-55
2021/05/10 02:55:41;;;;;;;3.00;2.08;;;;;;;21.88;41.66;99667.84;4171616;28;20029;-53
2021/05/10 02:57:42;;;;;;;1.90;1.80;;;;;;;21.95;41.67;99673.75;4172696;28;20032;-55
2021/05/10 02:59:43;;;;;;;3.22;1.60;;;;;;;21.94;41.67;99665.72;4167857;28;20040;-55
2021/05/10 03:01:44;;;;;;;2.20;2.00;;;;;;;21.93;41.82;99659.28;4170020;28;20035;-52
2021/05/10 03:03:44;;;;;;;2.72;2.38;;;;;;;21.94;41.49;99651.78;4173993;28;20028;-51
2021/05/10 03:05:45;;;;;;;2.08;1.80;;;;;;;21.94;41.42;99655.38;4174180;28;20032;-51
2021/05/10 03:07:45;;;;;;;3.90;1.95;;;;;;;21.90;41.84;99657.16;4175716;28;20056;-52
2021/05/10 03:09:46;;;;;;;2.70;2.00;;;;;;;21.88;41.75;99656.69;4174791;28;20103;-53
2021/05/10 03:11:46;;;;;;;3.90;1.52;;;;;;;21.89;41.82;99655.56;4174125;28;20037;-53
2021/05/10 03:13:47;;;;;;;4.20;1.80;;;;;;;21.84;41.97;99652.91;4169672;28;20079;-51
2021/05/10 03:15:47;;;;;;;1.70;1.60;;;;;;;21.85;41.83;99649.78;4173537;28;20102;-51
2021/05/10 03:17:52;;;;;;;2.35;1.83;;;;;;;21.86;42.01;99656.22;4170542;28;20505;-60
2021/05/10 03:19:52;;;;;;;2.45;2.05;;;;;;;21.87;41.97;99655.88;4171555;28;20108;-51
2021/05/10 03:21:52;;;;;;;2.33;1.70;;;;;;;21.83;41.75;99654.06;4171353;28;20080;-53
2021/05/10 03:23:53;;;;;;;3.08;1.58;;;;;;;21.84;41.92;99653.75;4175441;28;20179;-55
2021/05/10 03:25:53;;;;;;;2.50;2.03;;;;;;;21.82;41.84;99646.84;4174606;28;20044;-56
2021/05/10 03:27:54;;;;;;;2.38;1.55;;;;;;;21.84;42.11;99641.75;4172506;28;20363;-51
2021/05/10 03:29:54;;;;;;;2.22;1.80;;;;;;;21.81;41.90;99654.41;4174867;28;20029;-52
2021/05/10 03:31:54;;;;;;;2.83;2.17;;;;;;;21.76;41.88;99643.41;4174265;28;20493;-54
2021/05/10 03:33:55;;;;;;;2.10;1.90;;;;;;;21.78;41.92;99660.63;4174947;28;20457;-56
2021/05/10 03:35:55;;;;;;;2.33;2.13;;;;;;;21.80;42.21;99651.94;4171455;28;20037;-55
2021/05/10 03:37:56;;;;;;;3.58;1.95;;;;;;;21.81;41.89;99653.56;4173791;28;20493;-52
2021/05/10 03:39:56;;;;;;;1.88;1.60;;;;;;;21.82;41.80;99658.00;4172315;28;20037;-52
2021/05/10 03:41:57;;;;;;;2.30;1.98;;;;;;;21.74;42.14;99652.09;4173928;28;20068;-55
2021/05/10 03:43:57;;;;;;;2.28;1.92;;;;;;;21.72;42.20;99629.34;4175286;28;20472;-54
2021/05/10 03:45:58;;;;;;;2.45;2.25;;;;;;;21.75;42.26;99625.09;4170780;28;20364;-55
2021/05/10 03:47:58;;;;;;;3.08;1.92;;;;;;;21.74;41.95;99618.66;4170976;28;20040;-56
2021/05/10 03:50:02;;;;;;;2.00;1.80;;;;;;;21.76;42.25;99621.13;4172564;28;20485;-53
2021/05/10 03:52:02;;;;;;;4.18;1.90;;;;;;;21.70;42.16;99611.31;4171047;28;20045;-53
2021/05/10 03:54:03;;;;;;;4.13;2.13;;;;;;;21.74;42.17;99601.16;4174334;28;20048;-54
2021/05/10 03:56:04;;;;;;;2.72;2.08;;;;;;;21.78;42.06;99598.50;4171438;28;20033;-53
2021/05/10 03:58:04;;;;;;;4.18;2.05;;;;;;;21.74;42.25;99593.59;4171628;28;20061;-54
2021/05/10 04:00:06;;;;;;;3.50;2.35;;;;;;;21.70;41.98;99589.84;4171894;28;20041;-54
2021/05/10 04:02:07;;;;;;;3.20;2.33;;;;;;;21.72;41.97;99583.97;4168039;28;20029;-52
2021/05/10 04:04:17;;;;;;;4.78;2.08;;;;;;;21.73;41.79;99593.94;4171885;28;20040;-52
2021/05/10 04:15:14;;;;;;;2.60;2.40;;;;;;;21.60;42.34;99570.69;4170866;28;20892;-51
2021/05/10 04:17:15;;;;;;;3.17;2.60;;;;;;;21.59;42.33;99571.84;4175015;28;20029;-54
2021/05/10 04:19:15;;;;;;;3.58;2.20;;;;;;;21.66;41.70;99572.16;4169066;28;20282;-55
2021/05/10 04:21:15;;;;;;;3.55;2.08;;;;;;;21.65;42.28;99576.09;4175538;28;20430;-54
2021/05/10 04:23:17;;;;;;;2.97;2.25;;;;;;;21.58;42.15;99577.72;4176011;28;20037;-49
2021/05/10 04:25:17;;;;;;;2.20;2.00;;;;;;;21.68;42.04;99585.75;4177184;28;20098;-53
2021/05/10 04:27:18;;;;;;;3.28;2.15;;;;;;;21.65;42.31;99584.44;4174733;28;20029;-53
2021/05/10 04:29:18;;;;;;;3.00;2.28;;;;;;;21.58;42.05;99577.72;4174833;28;20033;-53
2021/05/10 04:31:18;;;;;;;3.60;2.30;;;;;;;21.66;42.04;99577.72;4176932;28;20037;-53
2021/05/10 04:33:33;;;;;;;3.20;2.40;;;;;;;21.65;42.00;99570.50;4175485;28;20033;-52
2021/05/10 04:35:33;;;;;;;3.17;2.33;;;;;;;21.58;42.22;99584.13;4177563;28;20045;-56
2021/05/10 04:37:34;;;;;;;3.25;2.50;;;;;;;21.65;41.99;99584.44;4175422;28;20033;-54
2021/05/10 04:39:35;;;;;;;4.55;2.83;;;;;;;21.59;42.08;99591.31;4177619;28;20033;-56
2021/05/10 04:41:35;;;;;;;2.67;2.47;;;;;;;21.63;42.12;99591.50;4173793;28;20394;-53
2021/05/10 04:43:36;;;;;;;3.20;2.10;;;;;;;21.60;42.14;99597.72;4177813;28;20033;-54
2021/05/10 04:45:37;;;;;;;2.90;2.70;;;;;;;21.58;42.30;99597.22;4176930;28;20566;-56
2021/05/10 04:47:37;;;;;;;3.83;3.00;;;;;;;21.59;41.89;99613.59;4177526;28;20025;-52
2021/05/10 04:49:38;;;;;;;2.58;2.38;;;;;;;21.64;42.22;99612.63;4160569;28;20499;-55
2021/05/10 04:51:38;;;;;;;2.70;2.50;;;;;;;21.61;41.94;99619.69;4175464;28;20032;-54
2021/05/10 04:53:38;;;;;;;2.90;2.70;;;;;;;21.58;42.19;99634.25;4173940;28;20061;-54
2021/05/10 04:55:39;;;;;;;5.13;2.67;;;;;;;21.46;41.85;99606.25;4175713;28;20048;-55
2021/05/10 04:57:40;;;;;;;2.95;2.63;;;;;;;21.58;41.97;99634.25;4172810;28;20052;-55
2021/05/10 04:59:41;;;;;;;2.95;2.72;;;;;;;21.46;41.85;99636.88;4176049;28;20040;-53
2021/05/10 05:01:43;;;;;;;2.75;2.55;;;;;;;21.56;41.98;99647.66;4175597;28;20285;-55
2021/05/10 05:03:43;;;;;;;2.83;2.63;;;;;;;21.55;41.66;99657.19;4175222;28;20025;-57
2021/05/10 05:05:43;;;;;;;2.58;2.38;;;;;;;21.51;41.77;99673.72;4166838;28;20109;-51
2021/05/10 05:07:44;;;;;;;3.20;2.38;;;;;;;21.47;41.66;99678.31;4169786;28;20029;-56
2021/05/10 05:09:44;;;;;;;2.63;2.42;;;;;;;21.37;42.23;99692.53;4173749;28;20033;-54
2021/05/10 05:11:45;;;;;;;4.20;2.75;;;;;;;21.37;42.20;99721.16;4175223;28;20032;-53
2021/05/10 05:13:45;;;;;;;3.28;2.67;;;;;;;21.31;42.32;99750.28;4176676;28;20037;-55
2021/05/10 05:15:45;;;;;;;2.17;1.70;;;;;;;21.26;42.34;99767.13;4176900;28;20028;-52
2021/05/10 05:17:46;;;;;;;2.40;1.90;;;;;;;21.35;42.03;99753.28;4171674;28;20033;-54
2021/05/10 05:19:47;;;;;;;2.08;1.98;;;;;;;21.10;42.26;99743.63;4175291;28;20028;-54
2021/05/10 05:21:47;;;;;;;3.08;2.10;;;;;;;21.23;42.52;99753.84;4176509;28;20112;-52
2021/05/10 05:23:48;;;;;;;2.10;2.00;;;;;;;21.26;42.13;99732.91;4173200;28;20087;-54
2021/05/10 05:26:00;;;;;;;2.22;1.55;;;;;;;21.27;41.94;99724.25;4178207;28;20033;-53
2021/05/10 05:28:00;;;;;;;2.63;2.05;;;;;;;21.25;41.78;99676.41;4174862;28;20083;-55
2021/05/10 05:30:01;;;;;;;2.70;1.98;;;;;;;21.25;42.21;99631.88;4173124;28;20029;-53
2021/05/10 05:32:02;;;;;;;2.75;1.40;;;;;;;21.30;41.85;99595.59;4175825;28;20487;-52
2021/05/10 05:34:03;;;;;;;2.97;1.73;;;;;;;21.29;42.14;99593.13;4172654;28;20075;-49
2021/05/10 05:36:05;;;;;;;2.92;2.08;;;;;;;21.31;42.06;99658.44;4176222;28;20052;-54
2021/05/10 05:38:09;;;;;;;2.58;1.45;;;;;;;21.32;41.86;99715.75;4174973;28;20036;-52
2021/05/10 05:40:10;;;;;;;2.17;1.90;;;;;;;21.33;41.82;99720.19;4175978;28;20040;-55
2021/05/10 05:42:10;;;;;;;2.88;1.70;;;;;;;21.27;41.63;99712.25;4177079;28;20044;-53
2021/05/10 05:44:10;;;;;;;2.88;1.60;;;;;;;21.28;41.75;99747.31;4173743;28;20040;-54
2021/05/10 05:46:15;;;;;;;3.58;1.75;;;;;;;21.28;41.80;99775.16;4177773;28;20037;-55
2021/05/10 05:48:15;;;;;;;4.10;1.77;;;;;;;21.21;41.79;99775.63;4176541;28;20525;-51
2021/05/10 05:50:16;;;;;;;4.18;1.60;;;;;;;21.20;41.79;99804.59;4175740;28;20021;-50
2021/05/10 05:52:16;;;;;;;2.38;1.50;;;;;;;20.96;42.15;99816.06;4173774;28;20608;-52
2021/05/10 05:54:17;;;;;;;3.88;1.63;;;;;;;21.15;41.96;99854.81;4173129;28;20052;-51
2021/05/10 05:56:18;;;;;;;3.53;1.60;;;;;;;21.06;42.04;99851.97;4173972;28;20076;-53
2021/05/10 05:58:18;;;;;;;4.90;2.08;;;;;;;21.12;41.92;99853.50;4171129;28;20036;-53
2021/05/10 06:00:19;;;;;;;2.45;1.83;;;;;;;21.05;42.33;99849.53;4174148;28;20033;-53
2021/05/10 06:02:20;;;;;;;5.20;2.20;;;;;;;21.02;42.08;99876.00;4173404;28;20367;-50
2021/05/10 06:04:20;;;;;;;3.95;1.70;;;;;;;21.06;42.26;99868.69;4175184;28;20041;-52
2021/05/10 06:06:21;;;;;;;4.50;1.70;;;;;;;20.97;42.24;99879.75;4174722;28;20033;-55
2021/05/10 06:08:21;;;;;;;3.90;1.27;;;;;;;20.98;42.47;99884.16;4176635;28;20039;-53
2021/05/10 06:10:26;;;;;;;3.78;1.52;;;;;;;20.94;42.48;99888.72;4174991;28;20087;-54
2021/05/10 06:12:26;;;;;;;5.13;1.38;;;;;;;20.99;42.72;99877.47;4174999;28;20032;-53
2021/05/10 06:14:27;;;;;;;5.18;1.55;;;;;;;20.97;42.47;99890.88;4170676;28;20033;-55
2021/05/10 06:16:31;;;;;;;2.75;1.50;;;;;;;20.99;42.67;99884.97;4172563;28;20028;-51
2021/05/10 06:18:32;;;;;;;7.18;2.05;;;;;;;21.00;42.34;99897.75;4175182;28;20127;-54
2021/05/10 06:20:32;;;;;;;5.05;1.52;;;;;;;20.98;42.52;99895.31;4171694;28;20407;-53
2021/05/10 06:22:33;;;;;;;4.55;1.52;;;;;;;20.96;42.67;99907.88;4171931;28;20037;-55
2021/05/10 06:24:33;;;;;;;2.50;1.00;;;;;;;20.90;42.43;99898.84;4166164;28;20051;-56
2021/05/10 06:26:34;;;;;;;3.65;1.83;;;;;;;20.98;42.40;99931.47;4170254;28;20411;-54
2021/05/10 06:28:34;;;;;;;2.58;1.30;;;;;;;20.91;42.75;99925.50;4175052;28;20040;-54
2021/05/10 06:30:35;;;;;;;2.75;1.15;;;;;;;20.87;42.65;99915.34;4175222;28;20397;-56
2021/05/10 06:32:36;;;;;;;3.75;1.33;;;;;;;20.86;42.68;99917.31;4171925;28;21268;-53
2021/05/10 06:34:37;;;;;;;2.50;1.20;;;;;;;20.89;42.60;99910.28;4175903;28;20052;-49
2021/05/10 06:36:37;;;;;;;1.67;1.00;;;;;;;20.95;42.77;99911.81;4172778;28;20029;-52
2021/05/10 06:38:38;;;;;;;3.58;1.25;;;;;;;20.90;42.74;99915.53;4174143;28;20037;-55
2021/05/10 06:40:38;;;;;;;2.55;1.00;;;;;;;20.91;42.78;99916.34;4174796;28;20083;-58
2021/05/10 06:42:39;;;;;;;2.70;1.00;;;;;;;20.92;42.78;99924.38;4171968;28;20083;-52
2021/05/10 06:44:39;;;;;;;1.05;0.85;;;;;;;20.88;42.64;99928.13;4171565;28;20049;-50
2021/05/10 06:46:40;;;;;;;1.60;1.17;;;;;;;20.83;42.60;99923.50;4172213;28;20040;-52
2021/05/10 06:48:40;;;;;;;1.55;0.73;;;;;;;20.85;42.68;99935.13;4173410;28;21272;-52
2021/05/10 06:50:40;;;;;;;4.60;1.40;;;;;;;20.85;42.52;99932.34;4173661;28;20037;-56
2021/05/10 06:52:41;;;;;;;1.83;0.70;;;;;;;20.83;42.68;99937.41;4171083;28;20048;-53
2021/05/10 06:54:42;;;;;;;2.70;0.80;;;;;;;20.83;42.89;99929.88;4174881;28;20025;-52
2021/05/10 06:56:42;;;;;;;3.00;0.90;;;;;;;20.88;42.68;99939.25;4172479;28;20041;-54
2021/05/10 06:58:42;;;;;;;1.02;0.63;;;;;;;20.88;42.64;99951.19;4170381;28;20517;-52
2021/05/10 07:00:43;;;;;;;1.63;0.80;;;;;;;20.87;42.42;99949.56;4173887;28;20368;-48
2021/05/10 07:02:44;;;;;;;4.10;0.82;;;;;;;20.84;42.65;99964.91;4175166;28;20044;-52
2021/05/10 07:04:44;;;;;;;2.53;0.60;;;;;;;20.87;42.26;99962.63;4170466;28;20748;-52
2021/05/10 07:06:44;;;;;;;1.00;0.68;;;;;;;20.80;42.39;99963.88;4171323;28;20387;-54
2021/05/10 07:08:45;;;;;;;1.23;0.75;;;;;;;20.74;42.85;99955.97;4175457;28;20041;-51
2021/05/10 07:10:48;;;;;;;0.90;0.55;;;;;;;20.76;42.70;99960.09;4169986;28;20033;-51
2021/05/10 07:12:49;;;;;;;1.33;0.63;;;;;;;20.75;42.50;99966.78;4171500;28;20371;-55
2021/05/10 07:14:49;;;;;;;1.83;0.75;;;;;;;20.75;42.50;99965.97;4169268;28;20052;-54
2021/05/10 07:16:50;;;;;;;1.73;0.70;;;;;;;20.76;42.55;99964.81;4172335;28;20490;-56
2021/05/10 07:18:50;;;;;;;0.75;0.75;;;;;;;20.70;42.51;99977.19;4172222;28;20075;-51
2021/05/10 07:20:51;;;;;;;1.20;0.80;;;;;;;20.68;42.81;99980.28;4171670;28;20033;-50
2021/05/10 07:22:52;;;;;;;1.90;0.90;;;;;;;20.64;42.49;99980.09;4171516;28;20037;-55
2021/05/10 07:24:52;;;;;;;1.40;0.60;;;;;;;20.73;42.47;100008.00;4168815;28;20394;-51
2021/05/10 07:26:52;;;;;;;0.90;0.80;;;;;;;20.59;42.56;99983.00;4170939;28;20070;-49
2021/05/10 07:28:53;;;;;;;0.85;0.73;;;;;;;20.62;42.75;100004.63;4172343;28;20435;-51
2021/05/10 07:30:53;;;;;;;1.40;0.68;;;;;;;20.62;42.71;100012.13;4174555;28;20036;-54
2021/05/10 07:32:54;;;;;;;1.65;0.75;;;;;;;20.55;42.61;100003.38;4172207;28;20600;-49
2021/05/10 07:34:54;;;;;;;1.13;0.88;;;;;;;20.61;42.74;100014.09;4172528;28;20118;-53
2021/05/10 07:36:55;;;;;;;1.27;0.80;;;;;;;20.61;42.67;100019.66;4171629;28;20037;-52
2021/05/10 07:38:56;;;;;;;0.90;0.80;;;;;;;20.61;42.54;100041.09;4171484;28;20032;-51
2021/05/10 07:40:56;;;;;;;2.65;1.48;;;;;;;20.57;42.60;100045.56;4172098;28;20064;-55
2021/05/10 07:42:58;;;;;;;1.65;1.00;;;;;;;20.55;42.38;100054.22;4172360;28;20040;-50
2021/05/10 07:44:59;;;;;;;1.30;1.20;;;;;;;20.53;42.42;100064.84;4170123;28;20029;-53
2021/05/10 07:46:59;;;;;;;1.98;1.00;;;;;;;20.54;42.19;100044.22;4173808;28;20094;-50
2021/05/10 07:49:00;;;;;;;3.67;1.27;;;;;;;20.56;42.45;100055.03;4171601;28;20026;-51
2021/05/10 07:51:00;;;;;;;3.03;1.40;;;;;;;20.59;42.10;100060.84;4173275;28;20033;-54
2021/05/10 07:53:00;;;;;;;3.25;1.50;;;;;;;20.51;42.34;100071.84;4173097;28;20367;-53
2021/05/10 07:55:02;;;;;;;2.40;1.38;;;;;;;20.55;42.33;100090.38;4170830;28;20091;-52
2021/05/10 07:57:02;;;;;;;3.03;1.85;;;;;;;20.58;42.18;100095.34;4172618;28;20029;-55
2021/05/10 07:59:08;;;;;;;2.70;1.80;;;;;;;20.59;42.17;100113.69;4176407;28;20077;-52
2021/05/10 08:01:09;;;;;;;3.05;1.67;;;;;;;20.60;41.84;100128.41;4175050;28;20037;-55
2021/05/10 08:03:14;;;;;;;2.78;1.98;;;;;;;20.62;41.82;100131.69;4174552;28;20406;-50
2021/05/10 08:05:15;;;;;;;5.32;2.30;;;;;;;20.55;41.94;100123.72;4174888;28;20136;-48
2021/05/10 08:07:16;;;;;;;6.45;2.55;;;;;;;20.52;42.10;100132.69;4175272;28;20037;-49
2021/05/10 08:09:16;;;;;;;6.35;2.53;;;;;;;20.46;42.18;100125.56;4175921;28;20056;-52
2021/05/10 08:11:18;;;;;;;4.32;2.50;;;;;;;20.55;42.13;100131.25;4174125;28;20028;-55
2021/05/10 08:13:18;;;;;;;5.07;2.38;;;;;;;20.48;42.12;100151.94;4172941;28;20395;-54
2021/05/10 08:15:19;;;;;;;4.63;2.47;;;;;;;20.53;41.71;100142.69;4174567;28;20115;-54
2021/05/10 08:17:21;;;;;;;3.88;2.42;;;;;;;20.53;41.80;100128.78;4173105;28;20061;-54
2021/05/10 08:19:22;;;;;;;5.68;2.72;;;;;;;20.50;41.87;100134.97;4173753;28;20043;-53
2021/05/10 08:21:22;;;;;;;6.40;2.83;;;;;;;20.48;41.76;100132.50;4172913;28;20040;-51
2021/05/10 08:23:24;;;;;;;6.60;2.72;;;;;;;20.58;41.84;100150.13;4174799;28;20029;-55
2021/05/10 08:25:24;;;;;;;5.55;2.90;;;;;;;20.54;41.94;100162.97;4176624;28;20029;-55
2021/05/10 08:27:25;;;;;;;5.75;3.20;;;;;;;20.54;41.81;100161.00;4173325;28;20085;-54
2021/05/10 08:29:25;;;;;;;6.70;3.38;;;;;;;20.51;41.73;100161.59;4171357;28;20448;-51
2021/05/10 08:31:26;;;;;;;3.83;2.97;;;;;;;20.37;41.76;100144.09;4172048;28;20515;-49
2021/05/10 08:33:27;;;;;;;7.63;4.07;;;;;;;20.53;41.84;100153.81;4175534;28;20368;-51
2021/05/10 08:35:27;;;;;;;6.75;3.63;;;;;;;20.57;41.91;100157.63;4173310;28;20403;-55
2021/05/10 08:37:28;;;;;;;6.50;3.42;;;;;;;20.54;41.49;100154.63;4174931;28;20267;-53
2021/05/10 08:39:29;;;;;;;6.13;3.22;;;;;;;20.57;41.52;100162.34;4172976;28;20391;-56
2021/05/10 08:41:30;;;;;;;6.97;3.58;;;;;;;20.17;41.98;100148.06;4171921;28;20071;-52
2021/05/10 08:43:30;;;;;;;8.45;3.70;;;;;;;20.38;41.92;100173.56;4171013;28;20087;-49
2021/05/10 08:45:31;;;;;;;8.93;3.92;;;;;;;20.45;41.91;100166.47;4174857;28;20394;-47
2021/05/10 08:47:35;;;;;;;9.75;3.88;;;;;;;20.47;42.02;100172.53;4169097;28;20503;-48
2021/05/10 08:49:36;;;;;;;8.77;3.90;;;;;;;20.53;41.87;100164.09;4174091;28;20052;-48
2021/05/10 08:51:39;;;;;;;7.78;4.28;;;;;;;20.58;41.70;100164.84;4174411;28;20033;-50
2021/05/10 08:53:41;;;;;;;7.20;4.30;;;;;;;20.57;41.79;100179.88;4174016;28;20043;-51
2021/05/10 08:55:41;;;;;;;9.45;4.32;;;;;;;20.67;41.68;100193.59;4174498;28;20667;-49
2021/05/10 08:57:42;;;;;;;7.60;4.35;;;;;;;20.61;42.09;100207.91;4177193;28;20037;-50
2021/05/10 08:59:43;;;;;;;11.27;4.20;;;;;;;20.62;41.94;100199.25;4174729;28;20039;-54
2021/05/10 09:01:53;;;;;;;8.68;4.15;;;;;;;20.63;42.18;100206.47;4173110;28;20104;-51
2021/05/10 09:03:53;;;;;;;9.35;4.47;;;;;;;20.73;41.94;100205.47;4176270;28;20048;-52
2021/05/10 09:05:57;;;;;;;8.90;4.18;;;;;;;20.65;41.72;100195.88;4175955;28;20080;-49
2021/05/10 09:08:05;;;;;;;11.23;3.65;;;;;;;20.68;41.94;100208.31;4174921;28;20024;-55
2021/05/10 09:10:13;;;;;;;6.13;3.58;;;;;;;20.77;41.69;100222.34;4176375;28;20150;-55
2021/05/10 09:12:14;;;;;;;7.18;3.30;;;;;;;20.77;41.92;100230.69;4174683;28;20520;-53
2021/05/10 09:14:28;;;;;;;8.60;3.55;;;;;;;20.77;41.91;100233.47;4175093;28;20041;-59
2021/05/10 09:16:34;;;;;;;5.93;2.97;;;;;;;20.84;41.70;100225.56;4174405;28;20033;-50
2021/05/10 09:18:36;;;;;;;6.28;3.13;;;;;;;20.85;42.00;100243.88;4173743;28;20471;-51
2021/05/10 09:20:41;;;;;;;4.45;3.08;;;;;;;20.91;41.66;100248.22;4177721;28;20029;-48
2021/05/10 09:22:55;;;;;;;5.50;2.65;;;;;;;20.90;41.80;100249.34;4173326;28;20033;-49
2021/05/10 09:24:56;;;;;;;7.53;3.13;;;;;;;20.90;41.48;100266.06;4173130;28;20078;-50
2021/05/10 09:26:56;;;;;;;7.32;2.97;;;;;;;20.95;41.67;100270.69;4172516;28;20473;-50
2021/05/10 09:28:57;;;;;;;6.88;2.75;;;;;;;20.96;41.91;100280.66;4174202;28;20040;-49
2021/05/10 09:31:04;;;;;;;3.58;2.45;;;;;;;20.83;41.90;100288.69;4168491;28;20079;-53
2021/05/10 09:33:05;;;;;;;7.28;2.20;;;;;;;20.91;41.67;100289.94;4173480;28;20029;-53
2021/05/10 09:35:20;;;;;;;2.78;2.40;;;;;;;20.90;42.04;100293.88;4173701;28;20060;-51
2021/05/10 09:37:26;;;;;;;5.78;2.60;;;;;;;20.98;41.68;100300.69;4176616;28;20104;-54
2021/05/10 09:39:29;;;;;;;3.55;2.25;;;;;;;21.02;41.77;100291.41;4174418;28;20278;-52
2021/05/10 09:41:30;;;;;;;5.00;2.10;;;;;;;21.00;41.57;100301.19;4176077;28;20043;-56
2021/05/10 09:43:36;;;;;;;6.13;2.25;;;;;;;21.06;41.60;100301.94;4175851;28;20460;-52
2021/05/10 09:45:43;;;;;;;4.85;2.15;;;;;;;21.10;41.63;100311.28;4174590;28;20033;-56